sensor_id;sensor_type;location;lat;lon;timestamp;P1;durP1;ratioP1;P2;durP2;ratioP2
37677;SDS011;23517;50.390;8.616;2024-03-02T00:00:39;3.35;;;2.33;;
37677;SDS011;23517;50.390;8.616;2024-03-02T00:03:06;4.50;;;2.13;;
37677;SDS011;23517;50.390;8.616;2024-03-02T00:05:35;4.60;;;2.72;;
37677;SDS011;23517;50.390;8.616;2024-03-02T00:08:02;8.60;;;2.45;;
37677;SDS011;23517;50.390;8.616;2024-03-02T00:10:37;3.88;;;2.55;;
37677;SDS011;23517;50.390;8.616;2024-03-02T00:13:08;3.85;;;2.53;;
37677;SDS011;23517;50.390;8.616;2024-03-02T00:15:39;6.18;;;4.13;;
37677;SDS011;23517;50.390;8.616;2024-03-02T00:18:16;5.45;;;3.47;;
37677;SDS011;23517;50.390;8.616;2024-03-02T00:20:47;3.65;;;2.88;;
37677;SDS011;23517;50.390;8.616;2024-03-02T00:23:15;2.90;;;2.28;;
37677;SDS011;23517;50.390;8.616;2024-03-02T00:25:44;3.67;;;2.55;;
37677;SDS011;23517;50.390;8.616;2024-03-02T00:28:21;5.90;;;2.83;;
37677;SDS011;23517;50.390;8.616;2024-03-02T00:30:51;3.35;;;2.72;;
37677;SDS011;23517;50.390;8.616;2024-03-02T00:33:25;3.85;;;2.30;;
37677;SDS011;23517;50.390;8.616;2024-03-02T00:35:54;3.22;;;2.70;;
37677;SDS011;23517;50.390;8.616;2024-03-02T00:38:22;3.17;;;2.58;;
37677;SDS011;23517;50.390;8.616;2024-03-02T00:40:49;3.53;;;2.50;;
37677;SDS011;23517;50.390;8.616;2024-03-02T00:46:26;3.25;;;2.70;;
37677;SDS011;23517;50.390;8.616;2024-03-02T00:48:59;6.95;;;3.20;;
37677;SDS011;23517;50.390;8.616;2024-03-02T00:51:28;3.20;;;2.80;;
37677;SDS011;23517;50.390;8.616;2024-03-02T00:54:01;3.65;;;2.55;;
37677;SDS011;23517;50.390;8.616;2024-03-02T00:56:32;5.60;;;2.97;;
37677;SDS011;23517;50.390;8.616;2024-03-02T00:59:00;5.13;;;2.90;;
37677;SDS011;23517;50.390;8.616;2024-03-02T01:01:27;3.72;;;2.58;;
37677;SDS011;23517;50.390;8.616;2024-03-02T01:03:54;3.97;;;2.70;;
37677;SDS011;23517;50.390;8.616;2024-03-02T01:06:21;3.30;;;2.50;;
37677;SDS011;23517;50.390;8.616;2024-03-02T01:08:52;3.53;;;2.60;;
37677;SDS011;23517;50.390;8.616;2024-03-02T01:11:19;2.83;;;2.33;;
37677;SDS011;23517;50.390;8.616;2024-03-02T01:13:49;3.35;;;2.80;;
37677;SDS011;23517;50.390;8.616;2024-03-02T01:16:16;4.53;;;2.83;;
37677;SDS011;23517;50.390;8.616;2024-03-02T01:18:43;12.57;;;4.05;;
37677;SDS011;23517;50.390;8.616;2024-03-02T01:21:11;5.32;;;2.78;;
37677;SDS011;23517;50.390;8.616;2024-03-02T01:23:38;4.78;;;3.25;;
37677;SDS011;23517;50.390;8.616;2024-03-02T01:26:05;5.50;;;3.40;;
37677;SDS011;23517;50.390;8.616;2024-03-02T01:28:31;4.55;;;3.30;;
37677;SDS011;23517;50.390;8.616;2024-03-02T01:30:58;4.82;;;3.25;;
37677;SDS011;23517;50.390;8.616;2024-03-02T01:33:25;5.40;;;3.13;;
37677;SDS011;23517;50.390;8.616;2024-03-02T01:35:52;6.00;;;3.50;;
37677;SDS011;23517;50.390;8.616;2024-03-02T01:38:18;5.63;;;3.17;;
37677;SDS011;23517;50.390;8.616;2024-03-02T01:40:45;4.45;;;2.97;;
37677;SDS011;23517;50.390;8.616;2024-03-02T01:43:13;4.30;;;3.30;;
37677;SDS011;23517;50.390;8.616;2024-03-02T01:45:39;5.38;;;3.60;;
37677;SDS011;23517;50.390;8.616;2024-03-02T01:48:06;3.78;;;3.03;;
37677;SDS011;23517;50.390;8.616;2024-03-02T01:50:34;4.82;;;3.45;;
37677;SDS011;23517;50.390;8.616;2024-03-02T01:53:01;5.65;;;3.78;;
37677;SDS011;23517;50.390;8.616;2024-03-02T01:55:29;5.13;;;3.80;;
37677;SDS011;23517;50.390;8.616;2024-03-02T01:57:56;5.03;;;3.67;;
37677;SDS011;23517;50.390;8.616;2024-03-02T02:00:25;4.97;;;3.38;;
37677;SDS011;23517;50.390;8.616;2024-03-02T02:02:52;7.05;;;4.10;;
37677;SDS011;23517;50.390;8.616;2024-03-02T02:05:20;5.10;;;3.60;;
37677;SDS011;23517;50.390;8.616;2024-03-02T02:07:47;4.93;;;3.42;;
37677;SDS011;23517;50.390;8.616;2024-03-02T02:10:14;6.78;;;3.65;;
37677;SDS011;23517;50.390;8.616;2024-03-02T02:12:41;7.85;;;4.00;;
37677;SDS011;23517;50.390;8.616;2024-03-02T02:17:55;6.47;;;4.15;;
37677;SDS011;23517;50.390;8.616;2024-03-02T02:20:23;5.97;;;4.20;;
37677;SDS011;23517;50.390;8.616;2024-03-02T02:22:55;6.40;;;4.13;;
37677;SDS011;23517;50.390;8.616;2024-03-02T02:25:25;6.25;;;4.38;;
37677;SDS011;23517;50.390;8.616;2024-03-02T02:27:53;6.63;;;4.22;;
37677;SDS011;23517;50.390;8.616;2024-03-02T02:30:24;6.88;;;4.45;;
37677;SDS011;23517;50.390;8.616;2024-03-02T02:32:55;9.65;;;5.30;;
37677;SDS011;23517;50.390;8.616;2024-03-02T02:35:22;7.28;;;4.88;;
37677;SDS011;23517;50.390;8.616;2024-03-02T02:37:50;7.32;;;4.07;;
37677;SDS011;23517;50.390;8.616;2024-03-02T02:40:20;6.45;;;5.15;;
37677;SDS011;23517;50.390;8.616;2024-03-02T02:42:47;11.43;;;5.53;;
37677;SDS011;23517;50.390;8.616;2024-03-02T02:45:14;9.77;;;5.70;;
37677;SDS011;23517;50.390;8.616;2024-03-02T02:47:42;8.07;;;5.13;;
37677;SDS011;23517;50.390;8.616;2024-03-02T02:50:09;8.95;;;5.20;;
37677;SDS011;23517;50.390;8.616;2024-03-02T02:52:38;7.95;;;5.15;;
37677;SDS011;23517;50.390;8.616;2024-03-02T02:55:08;8.05;;;5.70;;
37677;SDS011;23517;50.390;8.616;2024-03-02T02:57:38;10.27;;;5.90;;
37677;SDS011;23517;50.390;8.616;2024-03-02T03:00:09;9.15;;;6.25;;
37677;SDS011;23517;50.390;8.616;2024-03-02T03:02:43;9.45;;;5.80;;
37677;SDS011;23517;50.390;8.616;2024-03-02T03:05:13;9.27;;;6.22;;
37677;SDS011;23517;50.390;8.616;2024-03-02T03:07:41;9.02;;;6.00;;
37677;SDS011;23517;50.390;8.616;2024-03-02T03:10:08;10.02;;;5.85;;
37677;SDS011;23517;50.390;8.616;2024-03-02T03:12:35;7.15;;;5.50;;
37677;SDS011;23517;50.390;8.616;2024-03-02T03:15:03;8.75;;;5.82;;
37677;SDS011;23517;50.390;8.616;2024-03-02T03:17:32;12.00;;;6.28;;
37677;SDS011;23517;50.390;8.616;2024-03-02T03:19:59;12.38;;;6.75;;
37677;SDS011;23517;50.390;8.616;2024-03-02T03:22:27;9.90;;;6.63;;
37677;SDS011;23517;50.390;8.616;2024-03-02T03:24:53;11.35;;;6.80;;
37677;SDS011;23517;50.390;8.616;2024-03-02T03:27:20;11.20;;;7.05;;
37677;SDS011;23517;50.390;8.616;2024-03-02T03:29:47;8.65;;;6.30;;
37677;SDS011;23517;50.390;8.616;2024-03-02T03:32:14;9.50;;;6.25;;
37677;SDS011;23517;50.390;8.616;2024-03-02T03:34:41;8.13;;;5.82;;
37677;SDS011;23517;50.390;8.616;2024-03-02T03:37:07;10.13;;;6.03;;
37677;SDS011;23517;50.390;8.616;2024-03-02T03:39:36;10.52;;;6.53;;
37677;SDS011;23517;50.390;8.616;2024-03-02T03:42:03;8.35;;;6.10;;
37677;SDS011;23517;50.390;8.616;2024-03-02T03:44:30;11.52;;;7.25;;
37677;SDS011;23517;50.390;8.616;2024-03-02T03:46:57;10.40;;;6.55;;
37677;SDS011;23517;50.390;8.616;2024-03-02T03:49:23;9.80;;;6.55;;
37677;SDS011;23517;50.390;8.616;2024-03-02T03:51:50;11.52;;;6.70;;
37677;SDS011;23517;50.390;8.616;2024-03-02T03:54:17;11.55;;;6.95;;
37677;SDS011;23517;50.390;8.616;2024-03-02T03:56:44;9.48;;;6.93;;
37677;SDS011;23517;50.390;8.616;2024-03-02T03:59:10;12.25;;;7.60;;
37677;SDS011;23517;50.390;8.616;2024-03-02T04:01:37;11.27;;;7.03;;
37677;SDS011;23517;50.390;8.616;2024-03-02T04:04:04;10.18;;;7.07;;
37677;SDS011;23517;50.390;8.616;2024-03-02T04:06:30;11.25;;;7.18;;
37677;SDS011;23517;50.390;8.616;2024-03-02T04:08:58;11.90;;;6.88;;
37677;SDS011;23517;50.390;8.616;2024-03-02T04:11:24;10.93;;;7.13;;
37677;SDS011;23517;50.390;8.616;2024-03-02T04:13:51;10.75;;;7.22;;
37677;SDS011;23517;50.390;8.616;2024-03-02T04:16:21;10.65;;;7.35;;
37677;SDS011;23517;50.390;8.616;2024-03-02T04:18:48;9.82;;;6.68;;
37677;SDS011;23517;50.390;8.616;2024-03-02T04:21:15;10.35;;;7.00;;
37677;SDS011;23517;50.390;8.616;2024-03-02T04:23:42;10.25;;;6.65;;
37677;SDS011;23517;50.390;8.616;2024-03-02T04:26:09;10.07;;;7.18;;
37677;SDS011;23517;50.390;8.616;2024-03-02T04:28:35;10.45;;;7.25;;
37677;SDS011;23517;50.390;8.616;2024-03-02T04:31:02;12.38;;;7.80;;
37677;SDS011;23517;50.390;8.616;2024-03-02T04:33:29;12.73;;;7.03;;
37677;SDS011;23517;50.390;8.616;2024-03-02T04:35:56;12.50;;;7.50;;
37677;SDS011;23517;50.390;8.616;2024-03-02T04:38:23;10.98;;;7.35;;
37677;SDS011;23517;50.390;8.616;2024-03-02T04:40:50;11.18;;;7.60;;
37677;SDS011;23517;50.390;8.616;2024-03-02T04:43:17;12.48;;;7.95;;
37677;SDS011;23517;50.390;8.616;2024-03-02T04:45:44;10.32;;;7.03;;
37677;SDS011;23517;50.390;8.616;2024-03-02T04:48:11;11.23;;;7.05;;
37677;SDS011;23517;50.390;8.616;2024-03-02T04:50:38;11.57;;;7.70;;
37677;SDS011;23517;50.390;8.616;2024-03-02T04:53:04;10.55;;;7.22;;
37677;SDS011;23517;50.390;8.616;2024-03-02T04:55:31;10.68;;;7.25;;
37677;SDS011;23517;50.390;8.616;2024-03-02T04:58:01;10.77;;;6.72;;
37677;SDS011;23517;50.390;8.616;2024-03-02T05:00:28;12.40;;;6.85;;
37677;SDS011;23517;50.390;8.616;2024-03-02T05:02:54;10.65;;;7.63;;
37677;SDS011;23517;50.390;8.616;2024-03-02T05:05:21;12.90;;;7.50;;
37677;SDS011;23517;50.390;8.616;2024-03-02T05:07:50;13.30;;;7.30;;
37677;SDS011;23517;50.390;8.616;2024-03-02T05:10:17;12.43;;;7.60;;
37677;SDS011;23517;50.390;8.616;2024-03-02T05:12:44;10.50;;;7.22;;
37677;SDS011;23517;50.390;8.616;2024-03-02T05:15:14;10.02;;;6.43;;
37677;SDS011;23517;50.390;8.616;2024-03-02T05:17:41;11.82;;;7.70;;
37677;SDS011;23517;50.390;8.616;2024-03-02T05:20:12;13.95;;;7.57;;
37677;SDS011;23517;50.390;8.616;2024-03-02T05:22:38;9.45;;;6.82;;
37677;SDS011;23517;50.390;8.616;2024-03-02T05:25:06;10.98;;;7.25;;
37677;SDS011;23517;50.390;8.616;2024-03-02T05:27:33;11.90;;;7.55;;
37677;SDS011;23517;50.390;8.616;2024-03-02T05:30:00;11.18;;;7.13;;
37677;SDS011;23517;50.390;8.616;2024-03-02T05:32:27;10.90;;;6.90;;
37677;SDS011;23517;50.390;8.616;2024-03-02T05:34:54;12.07;;;7.13;;
37677;SDS011;23517;50.390;8.616;2024-03-02T05:37:21;11.65;;;7.72;;
37677;SDS011;23517;50.390;8.616;2024-03-02T05:39:48;14.07;;;8.07;;
37677;SDS011;23517;50.390;8.616;2024-03-02T05:42:14;11.77;;;7.68;;
37677;SDS011;23517;50.390;8.616;2024-03-02T05:44:43;13.02;;;8.25;;
37677;SDS011;23517;50.390;8.616;2024-03-02T05:47:09;12.07;;;7.70;;
37677;SDS011;23517;50.390;8.616;2024-03-02T05:49:44;13.95;;;8.63;;
37677;SDS011;23517;50.390;8.616;2024-03-02T05:52:10;17.05;;;9.77;;
37677;SDS011;23517;50.390;8.616;2024-03-02T05:54:38;21.90;;;12.25;;
37677;SDS011;23517;50.390;8.616;2024-03-02T05:57:05;19.15;;;12.02;;
37677;SDS011;23517;50.390;8.616;2024-03-02T05:59:59;20.95;;;12.00;;
37677;SDS011;23517;50.390;8.616;2024-03-02T06:02:26;23.55;;;13.02;;
37677;SDS011;23517;50.390;8.616;2024-03-02T06:04:54;25.52;;;15.60;;
37677;SDS011;23517;50.390;8.616;2024-03-02T06:07:21;24.08;;;15.13;;
37677;SDS011;23517;50.390;8.616;2024-03-02T06:09:49;20.60;;;13.30;;
37677;SDS011;23517;50.390;8.616;2024-03-02T06:12:18;18.10;;;11.43;;
37677;SDS011;23517;50.390;8.616;2024-03-02T06:14:45;16.80;;;9.85;;
37677;SDS011;23517;50.390;8.616;2024-03-02T06:17:12;14.93;;;9.63;;
37677;SDS011;23517;50.390;8.616;2024-03-02T06:19:38;15.30;;;9.45;;
37677;SDS011;23517;50.390;8.616;2024-03-02T06:22:05;13.55;;;9.30;;
37677;SDS011;23517;50.390;8.616;2024-03-02T06:24:32;13.43;;;9.02;;
37677;SDS011;23517;50.390;8.616;2024-03-02T06:26:59;14.10;;;9.32;;
37677;SDS011;23517;50.390;8.616;2024-03-02T06:29:25;14.95;;;9.40;;
37677;SDS011;23517;50.390;8.616;2024-03-02T06:31:52;13.48;;;8.95;;
37677;SDS011;23517;50.390;8.616;2024-03-02T06:34:20;13.68;;;9.45;;
37677;SDS011;23517;50.390;8.616;2024-03-02T06:36:47;15.48;;;9.30;;
37677;SDS011;23517;50.390;8.616;2024-03-02T06:39:14;16.00;;;9.32;;
37677;SDS011;23517;50.390;8.616;2024-03-02T06:41:41;13.90;;;8.95;;
37677;SDS011;23517;50.390;8.616;2024-03-02T06:44:08;14.52;;;9.55;;
37677;SDS011;23517;50.390;8.616;2024-03-02T06:49:12;18.75;;;12.88;;
37677;SDS011;23517;50.390;8.616;2024-03-02T06:51:39;18.95;;;14.05;;
37677;SDS011;23517;50.390;8.616;2024-03-02T06:54:05;19.48;;;11.73;;
37677;SDS011;23517;50.390;8.616;2024-03-02T06:56:32;18.08;;;12.13;;
37677;SDS011;23517;50.390;8.616;2024-03-02T06:58:59;17.75;;;12.20;;
37677;SDS011;23517;50.390;8.616;2024-03-02T07:01:26;17.77;;;10.98;;
37677;SDS011;23517;50.390;8.616;2024-03-02T07:03:54;13.55;;;8.93;;
37677;SDS011;23517;50.390;8.616;2024-03-02T07:06:20;12.60;;;8.48;;
37677;SDS011;23517;50.390;8.616;2024-03-02T07:08:47;13.25;;;8.82;;
37677;SDS011;23517;50.390;8.616;2024-03-02T07:11:14;14.32;;;10.63;;
37677;SDS011;23517;50.390;8.616;2024-03-02T07:13:41;16.80;;;11.18;;
37677;SDS011;23517;50.390;8.616;2024-03-02T07:16:07;14.45;;;9.77;;
37677;SDS011;23517;50.390;8.616;2024-03-02T07:18:37;14.88;;;9.18;;
37677;SDS011;23517;50.390;8.616;2024-03-02T07:21:07;18.30;;;10.55;;
37677;SDS011;23517;50.390;8.616;2024-03-02T07:23:34;15.55;;;10.07;;
37677;SDS011;23517;50.390;8.616;2024-03-02T07:26:01;13.25;;;9.80;;
37677;SDS011;23517;50.390;8.616;2024-03-02T07:28:30;16.55;;;11.07;;
37677;SDS011;23517;50.390;8.616;2024-03-02T07:31:01;16.13;;;11.23;;
37677;SDS011;23517;50.390;8.616;2024-03-02T07:33:30;13.90;;;9.05;;
37677;SDS011;23517;50.390;8.616;2024-03-02T07:35:58;15.82;;;10.25;;
37677;SDS011;23517;50.390;8.616;2024-03-02T07:38:30;18.90;;;13.02;;
37677;SDS011;23517;50.390;8.616;2024-03-02T07:40:58;15.50;;;9.73;;
37677;SDS011;23517;50.390;8.616;2024-03-02T07:43:26;12.93;;;8.38;;
37677;SDS011;23517;50.390;8.616;2024-03-02T07:45:53;14.50;;;9.35;;
37677;SDS011;23517;50.390;8.616;2024-03-02T07:48:20;15.38;;;9.70;;
37677;SDS011;23517;50.390;8.616;2024-03-02T07:50:47;18.63;;;11.75;;
37677;SDS011;23517;50.390;8.616;2024-03-02T07:53:14;23.95;;;14.15;;
37677;SDS011;23517;50.390;8.616;2024-03-02T07:55:41;23.55;;;14.90;;
37677;SDS011;23517;50.390;8.616;2024-03-02T07:58:08;17.30;;;12.63;;
37677;SDS011;23517;50.390;8.616;2024-03-02T08:00:35;15.90;;;12.18;;
37677;SDS011;23517;50.390;8.616;2024-03-02T08:03:02;12.23;;;9.63;;
37677;SDS011;23517;50.390;8.616;2024-03-02T08:05:29;13.18;;;8.73;;
37677;SDS011;23517;50.390;8.616;2024-03-02T08:07:56;13.50;;;9.98;;
37677;SDS011;23517;50.390;8.616;2024-03-02T08:10:22;13.20;;;9.68;;
37677;SDS011;23517;50.390;8.616;2024-03-02T08:12:49;12.13;;;8.45;;
37677;SDS011;23517;50.390;8.616;2024-03-02T08:15:16;10.75;;;7.93;;
37677;SDS011;23517;50.390;8.616;2024-03-02T08:17:43;16.67;;;10.68;;
37677;SDS011;23517;50.390;8.616;2024-03-02T08:20:15;11.95;;;9.07;;
37677;SDS011;23517;50.390;8.616;2024-03-02T08:22:42;11.13;;;7.65;;
37677;SDS011;23517;50.390;8.616;2024-03-02T08:25:09;10.40;;;8.00;;
37677;SDS011;23517;50.390;8.616;2024-03-02T08:27:37;11.65;;;6.93;;
37677;SDS011;23517;50.390;8.616;2024-03-02T08:30:05;7.88;;;6.35;;
37677;SDS011;23517;50.390;8.616;2024-03-02T08:32:33;9.98;;;7.22;;
37677;SDS011;23517;50.390;8.616;2024-03-02T08:35:00;12.30;;;7.68;;
37677;SDS011;23517;50.390;8.616;2024-03-02T08:37:27;10.07;;;7.38;;
37677;SDS011;23517;50.390;8.616;2024-03-02T08:39:54;10.57;;;8.00;;
37677;SDS011;23517;50.390;8.616;2024-03-02T08:42:21;11.00;;;8.43;;
37677;SDS011;23517;50.390;8.616;2024-03-02T08:44:49;10.95;;;8.27;;
37677;SDS011;23517;50.390;8.616;2024-03-02T08:47:16;10.77;;;7.55;;
37677;SDS011;23517;50.390;8.616;2024-03-02T08:49:42;11.05;;;7.45;;
37677;SDS011;23517;50.390;8.616;2024-03-02T08:52:09;10.18;;;7.75;;
37677;SDS011;23517;50.390;8.616;2024-03-02T08:54:36;10.20;;;7.03;;
37677;SDS011;23517;50.390;8.616;2024-03-02T08:57:04;11.23;;;7.20;;
37677;SDS011;23517;50.390;8.616;2024-03-02T08:59:31;9.75;;;7.13;;
37677;SDS011;23517;50.390;8.616;2024-03-02T09:01:58;10.02;;;7.53;;
37677;SDS011;23517;50.390;8.616;2024-03-02T09:04:25;10.30;;;7.32;;
37677;SDS011;23517;50.390;8.616;2024-03-02T09:06:55;9.43;;;7.05;;
37677;SDS011;23517;50.390;8.616;2024-03-02T09:09:22;10.50;;;7.57;;
37677;SDS011;23517;50.390;8.616;2024-03-02T09:11:48;10.43;;;7.03;;
37677;SDS011;23517;50.390;8.616;2024-03-02T09:14:15;9.55;;;7.38;;
37677;SDS011;23517;50.390;8.616;2024-03-02T09:16:42;12.73;;;7.07;;
37677;SDS011;23517;50.390;8.616;2024-03-02T09:19:09;9.07;;;7.10;;
37677;SDS011;23517;50.390;8.616;2024-03-02T09:21:36;10.45;;;6.57;;
37677;SDS011;23517;50.390;8.616;2024-03-02T09:24:04;9.20;;;7.28;;
37677;SDS011;23517;50.390;8.616;2024-03-02T09:26:32;7.80;;;5.85;;
37677;SDS011;23517;50.390;8.616;2024-03-02T09:28:59;9.63;;;5.78;;
37677;SDS011;23517;50.390;8.616;2024-03-02T09:31:26;7.40;;;5.43;;
37677;SDS011;23517;50.390;8.616;2024-03-02T09:33:53;7.85;;;5.55;;
37677;SDS011;23517;50.390;8.616;2024-03-02T09:36:20;12.02;;;7.38;;
37677;SDS011;23517;50.390;8.616;2024-03-02T09:38:49;8.88;;;5.88;;
37677;SDS011;23517;50.390;8.616;2024-03-02T09:41:15;13.00;;;9.48;;
37677;SDS011;23517;50.390;8.616;2024-03-02T09:43:42;15.20;;;10.50;;
37677;SDS011;23517;50.390;8.616;2024-03-02T09:46:10;17.02;;;10.80;;
37677;SDS011;23517;50.390;8.616;2024-03-02T09:48:37;10.32;;;7.20;;
37677;SDS011;23517;50.390;8.616;2024-03-02T09:51:04;9.48;;;7.47;;
37677;SDS011;23517;50.390;8.616;2024-03-02T09:53:32;8.35;;;6.53;;
37677;SDS011;23517;50.390;8.616;2024-03-02T09:56:00;8.85;;;6.82;;
37677;SDS011;23517;50.390;8.616;2024-03-02T09:58:27;9.30;;;6.70;;
37677;SDS011;23517;50.390;8.616;2024-03-02T10:00:55;7.88;;;6.43;;
37677;SDS011;23517;50.390;8.616;2024-03-02T10:03:22;8.82;;;6.82;;
37677;SDS011;23517;50.390;8.616;2024-03-02T10:05:53;8.70;;;7.05;;
37677;SDS011;23517;50.390;8.616;2024-03-02T10:08:19;8.73;;;7.07;;
37677;SDS011;23517;50.390;8.616;2024-03-02T10:10:46;11.02;;;7.30;;
37677;SDS011;23517;50.390;8.616;2024-03-02T10:13:14;9.02;;;7.05;;
37677;SDS011;23517;50.390;8.616;2024-03-02T10:15:42;11.27;;;7.30;;
37677;SDS011;23517;50.390;8.616;2024-03-02T10:18:10;9.07;;;7.30;;
37677;SDS011;23517;50.390;8.616;2024-03-02T10:20:38;9.30;;;7.18;;
37677;SDS011;23517;50.390;8.616;2024-03-02T10:23:14;9.30;;;7.38;;
37677;SDS011;23517;50.390;8.616;2024-03-02T10:25:44;8.43;;;7.03;;
37677;SDS011;23517;50.390;8.616;2024-03-02T10:28:23;9.40;;;7.30;;
37677;SDS011;23517;50.390;8.616;2024-03-02T10:30:50;12.70;;;8.45;;
37677;SDS011;23517;50.390;8.616;2024-03-02T10:33:18;10.15;;;7.60;;
37677;SDS011;23517;50.390;8.616;2024-03-02T10:35:49;9.43;;;7.28;;
37677;SDS011;23517;50.390;8.616;2024-03-02T10:38:16;9.55;;;7.25;;
37677;SDS011;23517;50.390;8.616;2024-03-02T10:40:46;10.50;;;7.45;;
37677;SDS011;23517;50.390;8.616;2024-03-02T10:43:14;9.60;;;6.95;;
37677;SDS011;23517;50.390;8.616;2024-03-02T10:45:43;9.55;;;6.60;;
37677;SDS011;23517;50.390;8.616;2024-03-02T10:48:12;11.35;;;7.53;;
37677;SDS011;23517;50.390;8.616;2024-03-02T10:50:39;9.02;;;6.90;;
37677;SDS011;23517;50.390;8.616;2024-03-02T10:53:05;12.07;;;6.97;;
37677;SDS011;23517;50.390;8.616;2024-03-02T10:55:32;14.07;;;7.40;;
37677;SDS011;23517;50.390;8.616;2024-03-02T10:58:00;8.63;;;7.20;;
37677;SDS011;23517;50.390;8.616;2024-03-02T11:00:33;10.55;;;7.22;;
37677;SDS011;23517;50.390;8.616;2024-03-02T11:03:04;9.18;;;6.60;;
37677;SDS011;23517;50.390;8.616;2024-03-02T11:05:43;9.20;;;6.93;;
37677;SDS011;23517;50.390;8.616;2024-03-02T11:08:16;11.25;;;7.85;;
37677;SDS011;23517;50.390;8.616;2024-03-02T11:10:48;10.23;;;7.60;;
37677;SDS011;23517;50.390;8.616;2024-03-02T11:13:30;13.05;;;8.20;;
37677;SDS011;23517;50.390;8.616;2024-03-02T11:16:04;10.75;;;8.38;;
37677;SDS011;23517;50.390;8.616;2024-03-02T11:18:36;10.82;;;7.78;;
37677;SDS011;23517;50.390;8.616;2024-03-02T11:21:04;9.70;;;7.82;;
37677;SDS011;23517;50.390;8.616;2024-03-02T11:23:32;11.82;;;7.90;;
37677;SDS011;23517;50.390;8.616;2024-03-02T11:26:18;9.63;;;7.53;;
37677;SDS011;23517;50.390;8.616;2024-03-02T11:28:49;12.13;;;7.88;;
37677;SDS011;23517;50.390;8.616;2024-03-02T11:31:16;11.65;;;7.18;;
37677;SDS011;23517;50.390;8.616;2024-03-02T11:33:43;9.95;;;7.13;;
37677;SDS011;23517;50.390;8.616;2024-03-02T11:36:09;14.00;;;7.70;;
37677;SDS011;23517;50.390;8.616;2024-03-02T11:38:38;8.80;;;6.90;;
37677;SDS011;23517;50.390;8.616;2024-03-02T11:41:06;10.52;;;7.00;;
37677;SDS011;23517;50.390;8.616;2024-03-02T11:43:38;9.93;;;7.10;;
37677;SDS011;23517;50.390;8.616;2024-03-02T11:46:07;12.27;;;7.35;;
37677;SDS011;23517;50.390;8.616;2024-03-02T11:48:35;10.23;;;6.90;;
37677;SDS011;23517;50.390;8.616;2024-03-02T11:51:04;9.30;;;7.22;;
37677;SDS011;23517;50.390;8.616;2024-03-02T11:53:31;9.07;;;7.28;;
37677;SDS011;23517;50.390;8.616;2024-03-02T11:56:02;11.18;;;6.68;;
37677;SDS011;23517;50.390;8.616;2024-03-02T11:58:29;11.18;;;7.90;;
37677;SDS011;23517;50.390;8.616;2024-03-02T12:00:56;9.25;;;7.28;;
37677;SDS011;23517;50.390;8.616;2024-03-02T12:03:24;11.35;;;7.45;;
37677;SDS011;23517;50.390;8.616;2024-03-02T12:05:53;10.52;;;7.45;;
37677;SDS011;23517;50.390;8.616;2024-03-02T12:08:20;9.88;;;7.50;;
37677;SDS011;23517;50.390;8.616;2024-03-02T12:11:00;9.70;;;7.13;;
37677;SDS011;23517;50.390;8.616;2024-03-02T12:13:29;9.52;;;7.38;;
37677;SDS011;23517;50.390;8.616;2024-03-02T12:15:57;9.00;;;6.97;;
37677;SDS011;23517;50.390;8.616;2024-03-02T12:18:25;8.75;;;6.20;;
37677;SDS011;23517;50.390;8.616;2024-03-02T12:20:52;9.55;;;6.72;;
37677;SDS011;23517;50.390;8.616;2024-03-02T12:23:23;7.97;;;6.05;;
37677;SDS011;23517;50.390;8.616;2024-03-02T12:25:50;13.32;;;6.72;;
37677;SDS011;23517;50.390;8.616;2024-03-02T12:28:17;8.93;;;6.82;;
37677;SDS011;23517;50.390;8.616;2024-03-02T12:30:43;13.60;;;6.90;;
37677;SDS011;23517;50.390;8.616;2024-03-02T12:33:11;9.65;;;6.53;;
37677;SDS011;23517;50.390;8.616;2024-03-02T12:35:38;9.00;;;5.93;;
37677;SDS011;23517;50.390;8.616;2024-03-02T12:38:06;7.78;;;5.85;;
37677;SDS011;23517;50.390;8.616;2024-03-02T12:40:33;8.65;;;5.90;;
37677;SDS011;23517;50.390;8.616;2024-03-02T12:43:00;10.70;;;5.90;;
37677;SDS011;23517;50.390;8.616;2024-03-02T12:45:27;9.00;;;6.05;;
37677;SDS011;23517;50.390;8.616;2024-03-02T12:47:53;10.77;;;6.30;;
37677;SDS011;23517;50.390;8.616;2024-03-02T12:50:20;8.95;;;5.97;;
37677;SDS011;23517;50.390;8.616;2024-03-02T12:52:50;8.63;;;6.15;;
37677;SDS011;23517;50.390;8.616;2024-03-02T12:55:19;12.90;;;6.75;;
37677;SDS011;23517;50.390;8.616;2024-03-02T12:57:51;8.27;;;5.20;;
37677;SDS011;23517;50.390;8.616;2024-03-02T13:00:19;9.57;;;5.50;;
37677;SDS011;23517;50.390;8.616;2024-03-02T13:02:48;5.50;;;4.15;;
37677;SDS011;23517;50.390;8.616;2024-03-02T13:05:16;4.93;;;4.13;;
37677;SDS011;23517;50.390;8.616;2024-03-02T13:07:46;6.40;;;4.30;;
37677;SDS011;23517;50.390;8.616;2024-03-02T13:10:14;6.15;;;4.25;;
37677;SDS011;23517;50.390;8.616;2024-03-02T13:12:41;5.45;;;4.10;;
37677;SDS011;23517;50.390;8.616;2024-03-02T13:15:09;5.47;;;4.20;;
37677;SDS011;23517;50.390;8.616;2024-03-02T13:17:42;6.90;;;4.22;;
37677;SDS011;23517;50.390;8.616;2024-03-02T13:20:12;5.25;;;3.90;;
37677;SDS011;23517;50.390;8.616;2024-03-02T13:22:40;5.70;;;4.13;;
37677;SDS011;23517;50.390;8.616;2024-03-02T13:25:07;5.82;;;4.40;;
37677;SDS011;23517;50.390;8.616;2024-03-02T13:27:36;5.20;;;4.25;;
37677;SDS011;23517;50.390;8.616;2024-03-02T13:30:03;6.80;;;3.97;;
37677;SDS011;23517;50.390;8.616;2024-03-02T13:32:34;9.50;;;4.30;;
37677;SDS011;23517;50.390;8.616;2024-03-02T13:35:01;4.57;;;3.70;;
37677;SDS011;23517;50.390;8.616;2024-03-02T13:37:29;6.43;;;4.13;;
37677;SDS011;23517;50.390;8.616;2024-03-02T13:39:55;6.25;;;4.28;;
37677;SDS011;23517;50.390;8.616;2024-03-02T13:42:23;5.70;;;4.18;;
37677;SDS011;23517;50.390;8.616;2024-03-02T13:44:50;5.40;;;4.22;;
37677;SDS011;23517;50.390;8.616;2024-03-02T13:47:17;6.45;;;4.50;;
37677;SDS011;23517;50.390;8.616;2024-03-02T13:49:44;5.00;;;4.28;;
37677;SDS011;23517;50.390;8.616;2024-03-02T13:52:15;5.85;;;3.75;;
37677;SDS011;23517;50.390;8.616;2024-03-02T13:54:47;3.78;;;3.38;;
37677;SDS011;23517;50.390;8.616;2024-03-02T13:57:15;4.25;;;3.40;;
37677;SDS011;23517;50.390;8.616;2024-03-02T13:59:43;4.38;;;3.85;;
37677;SDS011;23517;50.390;8.616;2024-03-02T14:02:10;4.88;;;3.60;;
37677;SDS011;23517;50.390;8.616;2024-03-02T14:04:38;4.32;;;3.50;;
37677;SDS011;23517;50.390;8.616;2024-03-02T14:07:06;4.50;;;2.92;;
37677;SDS011;23517;50.390;8.616;2024-03-02T14:09:38;5.35;;;3.75;;
37677;SDS011;23517;50.390;8.616;2024-03-02T14:12:05;4.97;;;3.22;;
37677;SDS011;23517;50.390;8.616;2024-03-02T14:14:32;5.72;;;3.80;;
37677;SDS011;23517;50.390;8.616;2024-03-02T14:16:59;4.35;;;3.30;;
37677;SDS011;23517;50.390;8.616;2024-03-02T14:19:29;6.20;;;3.38;;
37677;SDS011;23517;50.390;8.616;2024-03-02T14:21:56;3.92;;;3.17;;
37677;SDS011;23517;50.390;8.616;2024-03-02T14:24:23;3.10;;;2.60;;
37677;SDS011;23517;50.390;8.616;2024-03-02T14:26:52;3.17;;;2.80;;
37677;SDS011;23517;50.390;8.616;2024-03-02T14:29:28;4.32;;;2.80;;
37677;SDS011;23517;50.390;8.616;2024-03-02T14:31:55;3.55;;;2.75;;
37677;SDS011;23517;50.390;8.616;2024-03-02T14:34:22;4.20;;;2.92;;
37677;SDS011;23517;50.390;8.616;2024-03-02T14:36:48;3.88;;;2.90;;
37677;SDS011;23517;50.390;8.616;2024-03-02T14:39:15;6.13;;;3.03;;
37677;SDS011;23517;50.390;8.616;2024-03-02T14:41:42;4.45;;;2.65;;
37677;SDS011;23517;50.390;8.616;2024-03-02T14:44:09;4.65;;;3.28;;
37677;SDS011;23517;50.390;8.616;2024-03-02T14:46:36;5.75;;;3.25;;
37677;SDS011;23517;50.390;8.616;2024-03-02T14:49:03;4.78;;;3.30;;
37677;SDS011;23517;50.390;8.616;2024-03-02T14:51:30;3.80;;;3.03;;
37677;SDS011;23517;50.390;8.616;2024-03-02T14:53:57;6.65;;;2.88;;